Time;durP1;ratioP1;P1;durP2;ratioP2;P2;SDS_P1;SDS_P2;PMS_P1;PMS_P2;Temp;Humidity;BMP_temperature;BMP_pressure;BME280_temperature;BME280_humidity;BME280_pressure;Samples;Min_cycle;Max_cycle;Signal;HPM_P1;HPM_P2
2022/08/09 00:00:06;;;;;;;3.85;1.10;;;;;;;-148.22;100.00;64452.44;5006790;28;20050;-58
2022/08/09 00:02:37;;;;;;;0.90;0.80;;;;;;;-148.22;100.00;64452.44;5007262;28;20295;-58
2022/08/09 00:05:20;;;;;;;4.03;1.15;;;;;;;-148.22;100.00;64452.44;5006924;28;20041;-56
2022/08/09 00:08:09;;;;;;;2.23;1.10;;;;;;;-148.22;100.00;64452.44;5007379;28;20045;-56
2022/08/09 00:10:37;;;;;;;2.55;0.98;;;;;;;-148.22;100.00;64452.44;5004119;28;20289;-58
2022/08/09 00:13:08;;;;;;;2.72;0.90;;;;;;;-148.22;100.00;64452.44;5001798;28;20448;-58
2022/08/09 00:15:45;;;;;;;2.88;1.40;;;;;;;-148.22;100.00;64452.44;5005202;28;20046;-57
2022/08/09 00:18:27;;;;;;;2.47;0.98;;;;;;;-148.22;100.00;64452.44;5006971;28;20121;-58
2022/08/09 00:20:54;;;;;;;2.25;1.30;;;;;;;-148.22;100.00;64452.44;5006166;28;20111;-58
2022/08/09 00:23:21;;;;;;;3.47;1.13;;;;;;;-148.22;100.00;64452.44;5006694;28;20049;-58
2022/08/09 00:26:07;;;;;;;2.33;1.00;;;;;;;-148.22;100.00;64452.44;5005992;28;20069;-57
2022/08/09 00:28:38;;;;;;;1.58;1.08;;;;;;;-148.22;100.00;64452.44;5006429;28;20046;-58
2022/08/09 00:31:05;;;;;;;1.67;1.10;;;;;;;-148.22;100.00;64452.44;5005924;28;20524;-56
2022/08/09 00:33:53;;;;;;;4.65;1.02;;;;;;;-148.22;100.00;64452.44;5006783;28;20054;-57
2022/08/09 00:36:21;;;;;;;2.58;1.63;;;;;;;-148.22;100.00;64452.44;4998205;28;20037;-57
2022/08/09 00:38:55;;;;;;;2.47;1.00;;;;;;;-148.22;100.00;64452.44;5005792;28;20125;-57
2022/08/09 00:41:21;;;;;;;2.58;1.33;;;;;;;-148.22;100.00;64452.44;5006615;28;20449;-58
2022/08/09 00:44:08;;;;;;;2.33;0.90;;;;;;;-148.22;100.00;64452.44;5005960;28;20497;-58
2022/08/09 00:46:52;;;;;;;2.85;1.10;;;;;;;-148.22;100.00;64452.44;5004750;28;20104;-58
2022/08/09 00:49:27;;;;;;;2.53;1.30;;;;;;;-148.22;100.00;64452.44;5006384;28;20052;-58
2022/08/09 00:51:57;;;;;;;1.70;1.05;;;;;;;-148.22;100.00;64452.44;5006334;28;20293;-59
2022/08/09 00:54:32;;;;;;;5.10;1.40;;;;;;;-148.22;100.00;64452.44;5006207;28;20115;-59
2022/08/09 00:57:03;;;;;;;1.50;1.00;;;;;;;-148.22;100.00;64452.44;5006271;28;20053;-58
2022/08/09 00:59:41;;;;;;;2.75;1.15;;;;;;;-148.22;100.00;64452.44;5006343;28;20074;-58
2022/08/09 01:02:19;;;;;;;2.30;1.02;;;;;;;-148.22;100.00;64452.44;5005870;28;20042;-58
2022/08/09 01:05:11;;;;;;;2.03;1.13;;;;;;;-148.22;100.00;64452.44;5005963;28;20046;-58
2022/08/09 01:07:55;;;;;;;4.22;1.20;;;;;;;-148.22;100.00;64452.44;5004486;28;20113;-58
2022/08/09 01:10:38;;;;;;;1.80;1.35;;;;;;;-148.22;100.00;64452.44;5005551;28;20103;-58
2022/08/09 01:13:23;;;;;;;2.50;1.10;;;;;;;-148.22;100.00;64452.44;5006316;28;20046;-57
2022/08/09 01:15:59;;;;;;;1.67;1.10;;;;;;;-148.22;100.00;64452.44;5004594;28;20069;-57
2022/08/09 01:18:30;;;;;;;1.85;1.02;;;;;;;-148.22;100.00;64452.44;5005782;28;20049;-56
2022/08/09 01:21:34;;;;;;;5.82;1.33;;;;;;;-148.22;100.00;64452.44;4991659;28;20053;-57
2022/08/09 01:24:28;;;;;;;3.33;1.20;;;;;;;-148.22;100.00;64452.44;4996808;28;20120;-58
2022/08/09 01:27:02;;;;;;;4.28;1.20;;;;;;;-148.22;100.00;64452.44;4999470;28;20041;-57
2022/08/09 01:29:32;;;;;;;1.92;1.15;;;;;;;-148.22;100.00;64452.44;4996754;28;20049;-58
2022/08/09 01:32:21;;;;;;;5.22;1.50;;;;;;;-148.22;100.00;64452.44;4994913;28;20313;-57
2022/08/09 01:35:00;;;;;;;1.85;1.13;;;;;;;-148.22;100.00;64452.44;4991244;28;20049;-57
2022/08/09 01:37:44;;;;;;;2.03;1.20;;;;;;;-148.22;100.00;64452.44;4989850;28;20034;-56
2022/08/09 01:40:34;;;;;;;3.22;1.40;;;;;;;-148.22;100.00;64452.44;4998597;28;20395;-55
2022/08/09 01:43:03;;;;;;;3.15;1.20;;;;;;;-148.22;100.00;64452.44;4992181;28;20045;-57
2022/08/09 01:45:33;;;;;;;4.40;1.40;;;;;;;-148.22;100.00;64452.44;5004030;28;20045;-56
2022/08/09 01:48:11;;;;;;;2.13;1.27;;;;;;;-148.22;100.00;64452.44;5009640;28;20501;-56
2022/08/09 01:50:43;;;;;;;3.83;1.27;;;;;;;-148.22;100.00;64452.44;5008413;28;20484;-57
2022/08/09 01:53:15;;;;;;;3.13;1.30;;;;;;;-148.22;100.00;64452.44;5010094;28;20042;-57
2022/08/09 01:55:46;;;;;;;1.88;1.15;;;;;;;-148.22;100.00;64452.44;5009605;28;20077;-57
2022/08/09 01:58:14;;;;;;;4.05;1.30;;;;;;;-148.22;100.00;64452.44;5009016;28;20325;-58
2022/08/09 02:00:43;;;;;;;3.42;1.25;;;;;;;-148.22;100.00;64452.44;5000844;28;20705;-58
2022/08/09 02:03:18;;;;;;;2.85;1.40;;;;;;;-148.22;100.00;64452.44;5007773;28;20118;-58
2022/08/09 02:05:48;;;;;;;2.22;1.33;;;;;;;-148.22;100.00;64452.44;5003753;28;20042;-58
2022/08/09 02:08:35;;;;;;;5.32;1.48;;;;;;;-148.22;100.00;64452.44;5009626;28;20352;-58
2022/08/09 02:11:25;;;;;;;3.95;1.60;;;;;;;-148.22;100.00;64452.44;5008513;28;20594;-58
2022/08/09 02:14:10;;;;;;;4.90;1.33;;;;;;;-148.22;100.00;64452.44;5008918;28;20108;-58
2022/08/09 02:16:54;;;;;;;2.78;1.20;;;;;;;-148.22;100.00;64452.44;5009031;28;20109;-58
2022/08/09 02:19:41;;;;;;;2.05;1.02;;;;;;;-148.22;100.00;64452.44;5008064;28;20140;-56
2022/08/09 02:22:44;;;;;;;2.80;1.17;;;;;;;-148.22;100.00;64452.44;5009225;28;20089;-58
2022/08/09 02:25:19;;;;;;;1.90;1.20;;;;;;;-148.22;100.00;64452.44;5007822;28;20619;-58
2022/08/09 02:27:54;;;;;;;3.35;1.85;;;;;;;-148.22;100.00;64452.44;5007598;28;20088;-58
2022/08/09 02:30:31;;;;;;;3.10;1.30;;;;;;;-148.22;100.00;64452.44;5008301;28;20102;-57
2022/08/09 02:33:00;;;;;;;3.30;1.40;;;;;;;-148.22;100.00;64452.44;5008987;28;20066;-58
2022/08/09 02:35:30;;;;;;;3.90;1.50;;;;;;;-148.22;100.00;64452.44;5008955;28;20046;-60
2022/08/09 02:38:25;;;;;;;2.42;1.10;;;;;;;-148.22;100.00;64452.44;4988297;28;20695;-58
2022/08/09 02:41:09;;;;;;;3.00;1.30;;;;;;;-148.22;100.00;64452.44;5002453;28;20159;-58
2022/08/09 02:43:41;;;;;;;4.47;1.30;;;;;;;-148.22;100.00;64452.44;5008116;28;20100;-58
2022/08/09 02:46:25;;;;;;;2.50;1.35;;;;;;;-148.22;100.00;64452.44;5008331;28;20034;-57
2022/08/09 02:48:59;;;;;;;4.90;1.40;;;;;;;-148.22;100.00;64452.44;5008793;28;20053;-57
2022/08/09 02:51:31;;;;;;;3.92;1.35;;;;;;;-148.22;100.00;64452.44;5007353;28;20034;-56
2022/08/09 02:54:09;;;;;;;4.35;1.35;;;;;;;-148.22;100.00;64452.44;5008113;28;20140;-56
2022/08/09 02:56:40;;;;;;;3.63;1.45;;;;;;;-148.22;100.00;64452.44;5007273;28;20061;-56
2022/08/09 02:59:17;;;;;;;2.15;1.50;;;;;;;-148.22;100.00;64452.44;5009060;28;20521;-57
2022/08/09 03:02:05;;;;;;;2.00;1.23;;;;;;;-148.22;100.00;64452.44;5008505;28;20561;-58
2022/08/09 03:04:39;;;;;;;2.65;1.33;;;;;;;-148.22;100.00;64452.44;5007839;28;20103;-58
2022/08/09 03:07:07;;;;;;;3.25;1.38;;;;;;;-148.22;100.00;64452.44;5007056;28;20042;-58
2022/08/09 03:09:41;;;;;;;3.40;1.50;;;;;;;-148.22;100.00;64452.44;5007570;28;20414;-58
2022/08/09 03:12:11;;;;;;;2.85;1.27;;;;;;;-148.22;100.00;64452.44;5007698;28;20332;-57
2022/08/09 03:14:41;;;;;;;3.55;1.20;;;;;;;-148.22;100.00;64452.44;5006894;28;20077;-54
2022/08/09 03:17:10;;;;;;;2.08;1.20;;;;;;;-148.22;100.00;64452.44;5006752;28;20390;-52
2022/08/09 03:19:53;;;;;;;2.05;1.30;;;;;;;-148.22;100.00;64452.44;5002202;28;20353;-49
2022/08/09 03:22:29;;;;;;;2.47;1.35;;;;;;;-148.22;100.00;64452.44;5001197;28;20049;-53
2022/08/09 03:24:57;;;;;;;3.35;1.27;;;;;;;-148.22;100.00;64452.44;5007818;28;20532;-52
2022/08/09 03:27:47;;;;;;;7.07;1.60;;;;;;;-148.22;100.00;64452.44;5005987;28;20109;-52
2022/08/09 03:30:14;;;;;;;7.82;1.60;;;;;;;-148.22;100.00;64452.44;5007988;28;20041;-50
2022/08/09 03:33:03;;;;;;;2.10;1.30;;;;;;;-148.22;100.00;64452.44;5007093;28;20042;-51
2022/08/09 03:35:39;;;;;;;2.85;1.55;;;;;;;-148.22;100.00;64452.44;5007039;28;20402;-51
2022/08/09 03:38:26;;;;;;;3.78;1.63;;;;;;;-148.22;100.00;64452.44;5007823;28;20149;-52
2022/08/09 03:40:56;;;;;;;2.67;1.35;;;;;;;-148.22;100.00;64452.44;5007024;28;20302;-49
2022/08/09 03:43:23;;;;;;;7.78;2.17;;;;;;;-148.22;100.00;64452.44;5004128;28;20052;-49
2022/08/09 03:45:50;;;;;;;3.63;1.58;;;;;;;-148.22;100.00;64452.44;5006757;28;20147;-52
2022/08/09 03:48:37;;;;;;;4.50;1.50;;;;;;;-148.22;100.00;64452.44;4987887;28;20108;-52
2022/08/09 03:51:20;;;;;;;3.22;1.40;;;;;;;-148.22;100.00;64452.44;4989742;28;20108;-52
2022/08/09 03:54:07;;;;;;;5.28;1.50;;;;;;;-148.22;100.00;64452.44;5007240;28;20041;-51
2022/08/09 03:56:40;;;;;;;5.53;1.50;;;;;;;-148.22;100.00;64452.44;5007016;28;20112;-50
2022/08/09 03:59:12;;;;;;;2.63;1.30;;;;;;;-148.22;100.00;64452.44;5006171;28;20042;-47
2022/08/09 04:01:49;;;;;;;3.33;1.50;;;;;;;-148.22;100.00;64452.44;4999386;28;20045;-49
2022/08/09 04:04:16;;;;;;;3.38;1.50;;;;;;;-148.22;100.00;64452.44;4996116;28;20038;-52
2022/08/09 04:06:43;;;;;;;3.85;1.75;;;;;;;-148.22;100.00;64452.44;4998676;28;20050;-50
2022/08/09 04:09:15;;;;;;;4.05;1.67;;;;;;;-148.22;100.00;64452.44;5000146;28;20088;-52
2022/08/09 04:12:08;;;;;;;5.22;1.40;;;;;;;-148.22;100.00;64452.44;5000653;28;20053;-53
2022/08/09 04:14:39;;;;;;;3.00;1.50;;;;;;;-148.22;100.00;64452.44;4998763;28;20536;-52
2022/08/09 04:17:26;;;;;;;2.90;1.52;;;;;;;-148.22;100.00;64452.44;5003811;28;20053;-52
2022/08/09 04:19:55;;;;;;;3.55;1.77;;;;;;;-148.22;100.00;64452.44;5001055;28;20045;-52
2022/08/09 04:22:22;;;;;;;3.45;1.58;;;;;;;-148.22;100.00;64452.44;5014246;28;20072;-53
2022/08/09 04:24:49;;;;;;;2.75;1.75;;;;;;;-148.22;100.00;64452.44;5007019;28;20046;-51
2022/08/09 04:27:16;;;;;;;4.63;2.00;;;;;;;-148.22;100.00;64452.44;5000707;28;20042;-50
2022/08/09 04:29:48;;;;;;;3.60;2.10;;;;;;;-148.22;100.00;64452.44;4994736;28;20045;-50
2022/08/09 04:32:16;;;;;;;4.22;2.08;;;;;;;-148.22;100.00;64452.44;5003417;28;20509;-51
2022/08/09 04:34:56;;;;;;;3.40;2.10;;;;;;;-148.22;100.00;64452.44;4998944;28;20100;-50
2022/08/09 04:37:26;;;;;;;5.35;1.80;;;;;;;-148.22;100.00;64452.44;4996552;28;20042;-53
2022/08/09 04:40:13;;;;;;;3.83;1.70;;;;;;;-148.22;100.00;64452.44;4999310;28;20411;-52
2022/08/09 04:42:59;;;;;;;3.75;1.50;;;;;;;-148.22;100.00;64452.44;4997791;28;20097;-48
2022/08/09 04:45:26;;;;;;;11.55;2.08;;;;;;;-148.22;100.00;64452.44;4998617;28;20046;-55
2022/08/09 04:47:58;;;;;;;3.95;1.85;;;;;;;-148.22;100.00;64452.44;4998379;28;20045;-57
2022/08/09 04:50:35;;;;;;;7.07;1.83;;;;;;;-148.22;100.00;64452.44;4992250;28;20108;-56
2022/08/09 04:53:06;;;;;;;2.95;1.70;;;;;;;-148.22;100.00;64452.44;4988047;28;20054;-56
2022/08/09 04:55:40;;;;;;;3.30;1.85;;;;;;;-148.22;100.00;64452.44;4992983;28;20063;-55
2022/08/09 04:58:28;;;;;;;4.50;2.03;;;;;;;-148.22;100.00;64452.44;4994611;28;20046;-57
2022/08/09 05:00:58;;;;;;;3.78;2.05;;;;;;;-148.22;100.00;64452.44;4990030;28;20038;-55
2022/08/09 05:03:24;;;;;;;3.40;1.60;;;;;;;-148.22;100.00;64452.44;4987600;28;20108;-55
2022/08/09 05:06:12;;;;;;;3.38;2.00;;;;;;;-148.22;100.00;64452.44;4986336;28;20050;-56
2022/08/09 05:08:55;;;;;;;5.07;1.83;;;;;;;-148.22;100.00;64452.44;4989749;28;20104;-58
2022/08/09 05:11:28;;;;;;;4.05;1.90;;;;;;;-148.22;100.00;64452.44;5006004;28;20041;-58
2022/08/09 05:14:01;;;;;;;3.70;1.70;;;;;;;-148.22;100.00;64452.44;5005489;28;20045;-58
2022/08/09 05:16:31;;;;;;;3.90;1.60;;;;;;;-148.22;100.00;64452.44;5005048;28;20465;-58
2022/08/09 05:18:58;;;;;;;5.80;2.42;;;;;;;-148.22;100.00;64452.44;5005443;28;20141;-58
2022/08/09 05:21:27;;;;;;;6.95;1.85;;;;;;;-148.22;100.00;64452.44;5005428;28;20108;-58
2022/08/09 05:23:56;;;;;;;3.03;1.70;;;;;;;-148.22;100.00;64452.44;5005595;28;20038;-58
2022/08/09 05:26:29;;;;;;;4.05;2.03;;;;;;;-148.22;100.00;64452.44;5005081;28;20062;-58
2022/08/09 05:29:03;;;;;;;5.32;1.85;;;;;;;-148.22;100.00;64452.44;4990597;28;20382;-58
2022/08/09 05:31:30;;;;;;;4.30;1.80;;;;;;;-148.22;100.00;64452.44;5005962;28;20049;-58
2022/08/09 05:34:14;;;;;;;5.68;1.70;;;;;;;-148.22;100.00;64452.44;5005016;28;20062;-58
2022/08/09 05:36:43;;;;;;;5.53;1.90;;;;;;;-148.22;100.00;64452.44;5005999;28;20085;-58
2022/08/09 05:39:16;;;;;;;5.45;2.35;;;;;;;-148.22;100.00;64452.44;5005176;28;20052;-58
2022/08/09 05:41:54;;;;;;;5.30;1.80;;;;;;;-148.22;100.00;64452.44;5004931;28;20046;-58
2022/08/09 05:44:21;;;;;;;4.35;1.80;;;;;;;-148.22;100.00;64452.44;5002098;28;20061;-58
2022/08/09 05:46:59;;;;;;;4.03;1.80;;;;;;;-148.22;100.00;64452.44;4983888;28;20490;-51
2022/08/09 05:49:26;;;;;;;5.20;2.08;;;;;;;-148.22;100.00;64452.44;4996991;28;20053;-48
2022/08/09 05:52:12;;;;;;;4.63;2.05;;;;;;;-148.22;100.00;64452.44;4996923;28;20113;-51
2022/08/09 05:54:40;;;;;;;3.40;1.60;;;;;;;-148.22;100.00;64452.44;4994892;28;20052;-51
2022/08/09 05:57:07;;;;;;;6.32;1.73;;;;;;;-148.22;100.00;64452.44;4990206;28;20520;-50
2022/08/09 05:59:39;;;;;;;3.20;1.60;;;;;;;-148.22;100.00;64452.44;5003564;28;20421;-52
2022/08/09 06:02:08;;;;;;;8.60;1.80;;;;;;;-148.22;100.00;64452.44;4996006;28;20125;-52
2022/08/09 06:04:35;;;;;;;3.30;1.65;;;;;;;-148.22;100.00;64452.44;4999838;28;20034;-52
2022/08/09 06:07:10;;;;;;;3.05;1.55;;;;;;;-148.22;100.00;64452.44;4994612;28;20049;-49
2022/08/09 06:09:47;;;;;;;4.00;1.70;;;;;;;-148.22;100.00;64452.44;4992827;28;20042;-51
2022/08/09 06:12:25;;;;;;;5.00;1.67;;;;;;;-148.22;100.00;64452.44;4991805;28;20046;-51
2022/08/09 06:14:52;;;;;;;3.55;1.63;;;;;;;-148.22;100.00;64452.44;5000279;28;20390;-54
2022/08/09 06:17:18;;;;;;;3.42;1.65;;;;;;;-148.22;100.00;64452.44;5003144;28;20616;-53
2022/08/09 06:19:45;;;;;;;4.75;2.70;;;;;;;-148.22;100.00;64452.44;4993128;28;20049;-49
2022/08/09 06:22:14;;;;;;;5.32;1.85;;;;;;;-148.22;100.00;64452.44;4990288;28;20078;-52
2022/08/09 06:24:41;;;;;;;3.28;1.90;;;;;;;-148.22;100.00;64452.44;5002841;28;20050;-53
2022/08/09 06:27:07;;;;;;;3.22;1.90;;;;;;;-148.22;100.00;64452.44;5005263;28;20502;-55
2022/08/09 06:29:34;;;;;;;4.35;2.03;;;;;;;-148.22;100.00;64452.44;4996178;28;20050;-55
2022/08/09 06:32:20;;;;;;;3.50;1.90;;;;;;;-148.22;100.00;64452.44;4993751;28;20069;-55
2022/08/09 06:35:08;;;;;;;4.88;2.22;;;;;;;-148.22;100.00;64452.44;4998195;28;20049;-54
2022/08/09 06:37:35;;;;;;;3.72;2.10;;;;;;;-148.22;100.00;64452.44;4998981;28;20270;-55
2022/08/09 06:40:22;;;;;;;3.58;1.95;;;;;;;-148.22;100.00;64452.44;4999985;28;20142;-52
2022/08/09 06:42:50;;;;;;;4.28;1.98;;;;;;;-148.22;100.00;64452.44;5005331;28;20049;-52
2022/08/09 06:45:17;;;;;;;3.65;1.80;;;;;;;-148.22;100.00;64452.44;5005105;28;20041;-53
2022/08/09 06:48:03;;;;;;;3.65;1.95;;;;;;;-148.22;100.00;64452.44;5008196;28;20100;-52
2022/08/09 06:50:30;;;;;;;4.88;1.85;;;;;;;-148.22;100.00;64452.44;5008645;28;20057;-50
2022/08/09 06:52:59;;;;;;;3.30;1.80;;;;;;;-148.22;100.00;64452.44;5007437;28;20034;-55
2022/08/09 06:55:30;;;;;;;6.88;2.17;;;;;;;-148.22;100.00;64452.44;5008566;28;20783;-55
2022/08/09 06:58:00;;;;;;;;;;;;;;;-148.22;100.00;64452.44;5008631;28;20041;-55
2022/08/09 07:00:35;;;;;;;7.28;2.00;;;;;;;-148.22;100.00;64452.44;5008588;28;19992;-50
2022/08/09 07:03:22;;;;;;;3.03;1.90;;;;;;;-148.22;100.00;64452.44;4989624;28;20077;-65
2022/08/09 07:05:55;;;;;;;4.70;2.50;;;;;;;-148.22;100.00;64452.44;4995560;28;20489;-63
2022/08/09 07:08:33;;;;;;;5.72;2.20;;;;;;;-148.22;100.00;64452.44;5000399;28;20498;-63
2022/08/09 07:11:03;;;;;;;6.22;2.55;;;;;;;-148.22;100.00;64452.44;4993804;28;20505;-64
2022/08/09 07:13:32;;;;;;;4.47;2.00;;;;;;;-148.22;100.00;64452.44;5000886;28;20034;-65
2022/08/09 07:16:18;;;;;;;3.90;2.05;;;;;;;-148.22;100.00;64452.44;5001701;28;20447;-63
2022/08/09 07:19:05;;;;;;;3.45;2.20;;;;;;;-148.22;100.00;64452.44;4994532;28;20035;-65
2022/08/09 07:21:33;;;;;;;5.10;2.08;;;;;;;-148.22;100.00;64452.44;5004393;28;20046;-65
2022/08/09 07:24:01;;;;;;;;;;;;;;;-148.22;100.00;64452.44;5020433;28;20072;-64
2022/08/09 07:26:30;;;;;;;;;;;;;;;-148.22;100.00;64452.44;5023668;28;19925;-64
2022/08/09 07:28:56;;;;;;;;;;;;;;;-148.22;100.00;64452.44;5020591;28;19926;-59
2022/08/09 07:31:37;;;;;;;;;;;;;;;-148.22;100.00;64452.44;5020842;28;19926;-65
2022/08/09 07:34:11;;;;;;;;;;;;;;;-148.22;100.00;64452.44;5011035;28;20360;-63
2022/08/09 07:36:46;;;;;;;;;;;;;;;-148.22;100.00;64452.44;5001735;28;19930;-64
2022/08/09 07:39:12;;;;;;;4.18;2.10;;;;;;;-148.22;100.00;64452.44;4994529;28;19925;-63
2022/08/09 07:41:59;;;;;;;3.30;1.80;;;;;;;-148.22;100.00;64452.44;5006620;28;20100;-62
2022/08/09 07:44:26;;;;;;;4.80;2.00;;;;;;;-148.22;100.00;64452.44;4993640;28;20069;-64
2022/08/09 07:47:12;;;;;;;4.68;2.00;;;;;;;-148.22;100.00;64452.44;5004110;28;20577;-61
2022/08/09 07:49:42;;;;;;;3.75;2.13;;;;;;;-148.22;100.00;64452.44;5006303;28;20098;-59
2022/08/09 07:52:28;;;;;;;6.20;1.92;;;;;;;-148.22;100.00;64452.44;5006519;28;20092;-60
2022/08/09 07:54:55;;;;;;;5.50;2.13;;;;;;;-148.22;100.00;64452.44;5006410;28;20517;-63
2022/08/09 07:57:23;;;;;;;8.90;1.92;;;;;;;-148.22;100.00;64452.44;5006169;28;20041;-65
2022/08/09 08:00:03;;;;;;;4.55;1.83;;;;;;;-148.22;100.00;64452.44;4993120;28;20046;-64
2022/08/09 08:02:41;;;;;;;7.57;2.17;;;;;;;-148.22;100.00;64452.44;5006906;28;20405;-62
2022/08/09 08:05:13;;;;;;;3.83;2.00;;;;;;;-148.22;100.00;64452.44;5006097;28;20072;-65
2022/08/09 08:07:44;;;;;;;3.03;1.77;;;;;;;-148.22;100.00;64452.44;5006571;28;20045;-64
2022/08/09 08:10:31;;;;;;;6.68;2.17;;;;;;;-148.22;100.00;64452.44;5007104;28;20046;-65
2022/08/09 08:13:00;;;;;;;5.32;1.80;;;;;;;-148.22;100.00;64452.44;5006368;28;20061;-63
2022/08/09 08:15:29;;;;;;;5.97;1.98;;;;;;;-148.22;100.00;64452.44;5002244;28;20053;-63
2022/08/09 08:18:03;;;;;;;6.90;2.00;;;;;;;-148.22;100.00;64452.44;5006956;28;20057;-59
2022/08/09 08:20:29;;;;;;;6.13;2.10;;;;;;;-148.22;100.00;64452.44;5001568;28;20048;-59
2022/08/09 08:23:00;;;;;;;3.95;2.08;;;;;;;-148.22;100.00;64452.44;5005329;28;20476;-63
2022/08/09 08:25:46;;;;;;;5.05;2.38;;;;;;;-148.22;100.00;64452.44;4995233;28;20178;-64
2022/08/09 08:28:16;;;;;;;5.57;2.20;;;;;;;-148.22;100.00;64452.44;4995553;28;20054;-64
2022/08/09 08:30:51;;;;;;;4.20;1.80;;;;;;;-148.22;100.00;64452.44;4994932;28;20408;-65
2022/08/09 08:33:17;;;;;;;5.32;1.90;;;;;;;-148.22;100.00;64452.44;4996225;28;20054;-59
2022/08/09 08:35:51;;;;;;;3.38;1.80;;;;;;;-148.22;100.00;64452.44;5002625;28;21266;-63
2022/08/09 08:38:27;;;;;;;5.78;2.05;;;;;;;-148.22;100.00;64452.44;5004150;28;20056;-62
2022/08/09 08:40:55;;;;;;;8.32;2.22;;;;;;;-148.22;100.00;64452.44;4998759;28;20583;-60
2022/08/09 08:43:22;;;;;;;4.15;1.67;;;;;;;-148.22;100.00;64452.44;4999416;28;20061;-62
2022/08/09 08:45:52;;;;;;;5.43;2.88;;;;;;;-148.22;100.00;64452.44;5002707;28;20045;-64
2022/08/09 08:48:35;;;;;;;6.05;1.77;;;;;;;-148.22;100.00;64452.44;4997883;28;20069;-63
2022/08/09 08:51:03;;;;;;;4.63;1.90;;;;;;;-148.22;100.00;64452.44;5005991;28;20048;-63
2022/08/09 08:53:29;;;;;;;5.93;1.70;;;;;;;-148.22;100.00;64452.44;4987138;28;20096;-64
2022/08/09 08:56:04;;;;;;;5.30;2.50;;;;;;;-148.22;100.00;64452.44;4997714;28;20046;-60
2022/08/09 08:58:32;;;;;;;3.15;1.90;;;;;;;-148.22;100.00;64452.44;4986391;28;20066;-62
2022/08/09 09:01:02;;;;;;;4.75;1.90;;;;;;;-148.22;100.00;64452.44;4990950;28;20096;-63
2022/08/09 09:03:47;;;;;;;3.78;1.60;;;;;;;-148.22;100.00;64452.44;4993710;28;20421;-63
2022/08/09 09:06:16;;;;;;;;;;;;;;;-148.22;100.00;64452.44;5000211;28;20725;-61
2022/08/09 09:08:45;;;;;;;3.60;1.88;;;;;;;-148.22;100.00;64452.44;4995302;28;20254;-60
2022/08/09 09:11:19;;;;;;;3.58;2.00;;;;;;;-148.22;100.00;64452.44;4999104;28;20517;-61
2022/08/09 09:13:48;;;;;;;4.82;1.80;;;;;;;-148.22;100.00;64452.44;4995608;28;20537;-60
2022/08/09 09:16:31;;;;;;;4.10;2.53;;;;;;;-148.22;100.00;64452.44;5000582;28;20416;-61
2022/08/09 09:19:02;;;;;;;2.90;1.40;;;;;;;-148.22;100.00;64452.44;4993133;28;20416;-61
2022/08/09 09:22:18;;;;;;;3.50;1.90;;;;;;;-148.22;100.00;64452.44;4997611;28;20046;-61
2022/08/09 09:24:55;;;;;;;6.55;1.83;;;;;;;-148.22;100.00;64452.44;5000652;28;20127;-61
2022/08/09 09:27:41;;;;;;;4.35;1.65;;;;;;;-148.22;100.00;64452.44;4996986;28;20046;-60
2022/08/09 09:30:28;;;;;;;3.80;1.70;;;;;;;-148.22;100.00;64452.44;5001956;28;20484;-63
2022/08/09 09:33:13;;;;;;;6.88;1.80;;;;;;;-148.22;100.00;64452.44;5000453;28;20141;-64
2022/08/09 09:36:00;;;;;;;3.40;1.70;;;;;;;-148.22;100.00;64452.44;5003721;28;20073;-65
2022/08/09 09:38:47;;;;;;;4.45;2.00;;;;;;;-148.22;100.00;64452.44;4997148;28;20069;-64
2022/08/09 09:41:22;;;;;;;6.85;1.88;;;;;;;-148.22;100.00;64452.44;4987442;28;20109;-64
2022/08/09 09:44:00;;;;;;;2.47;1.42;;;;;;;-148.22;100.00;64452.44;4999226;28;20572;-63
2022/08/09 09:46:41;;;;;;;2.63;1.70;;;;;;;-148.22;100.00;64452.44;4990907;28;20498;-66
2022/08/09 09:49:20;;;;;;;4.63;1.70;;;;;;;-148.22;100.00;64452.44;5004679;28;20508;-63
2022/08/09 09:52:08;;;;;;;4.28;1.80;;;;;;;-148.22;100.00;64452.44;4997483;28;20327;-63
2022/08/09 09:55:03;;;;;;;3.75;1.90;;;;;;;-148.22;100.00;64452.44;5006061;28;20111;-63
2022/08/09 09:57:58;;;;;;;3.50;1.60;;;;;;;-148.22;100.00;64452.44;5005891;28;20078;-63
2022/08/09 10:00:29;;;;;;;2.83;1.58;;;;;;;-148.22;100.00;64452.44;5004180;28;20034;-61
2022/08/09 10:02:58;;;;;;;5.32;1.70;;;;;;;-148.22;100.00;64452.44;5009817;28;20389;-63
2022/08/09 10:05:25;;;;;;;3.38;1.60;;;;;;;-148.22;100.00;64452.44;5006536;28;20046;-64
2022/08/09 10:08:11;;;;;;;4.30;1.90;;;;;;;-148.22;100.00;64452.44;4997010;28;20042;-64
2022/08/09 10:10:54;;;;;;;2.78;1.48;;;;;;;-148.22;100.00;64452.44;5003760;28;20045;-63
2022/08/09 10:13:21;;;;;;;4.13;2.38;;;;;;;-148.22;100.00;64452.44;4999495;28;20065;-60
2022/08/09 10:16:08;;;;;;;4.00;1.70;;;;;;;-148.22;100.00;64452.44;5002627;28;20070;-63
2022/08/09 10:19:00;;;;;;;3.00;1.80;;;;;;;-148.22;100.00;64452.44;4992368;28;20049;-64
2022/08/09 10:21:29;;;;;;;3.17;1.70;;;;;;;-148.22;100.00;64452.44;5006910;28;20040;-64
2022/08/09 10:24:03;;;;;;;2.60;1.50;;;;;;;-148.22;100.00;64452.44;5002351;28;20041;-64
2022/08/09 10:26:30;;;;;;;4.63;1.80;;;;;;;-148.22;100.00;64452.44;5009159;28;20386;-62
2022/08/09 10:28:57;;;;;;;2.58;1.50;;;;;;;-148.22;100.00;64452.44;5007864;28;20533;-63
2022/08/09 10:31:44;;;;;;;4.00;1.70;;;;;;;-148.22;100.00;64452.44;4999322;28;20124;-59
2022/08/09 10:34:31;;;;;;;5.57;1.73;;;;;;;-148.22;100.00;64452.44;4990299;28;20050;-59
2022/08/09 10:37:01;;;;;;;;;;;;;;;-148.22;100.00;64452.44;5000342;28;20050;-59
2022/08/09 10:39:28;;;;;;;3.30;1.60;;;;;;;-148.22;100.00;64452.44;4997681;28;19925;-60
2022/08/09 10:42:06;;;;;;;4.63;1.67;;;;;;;-148.22;100.00;64452.44;5003587;28;20050;-60
2022/08/09 10:44:37;;;;;;;4.15;1.83;;;;;;;-148.22;100.00;64452.44;5005880;28;20076;-60
2022/08/09 10:47:38;;;;;;;5.65;1.98;;;;;;;-148.22;100.00;64452.44;5006284;28;20166;-59
2022/08/09 10:53:40;;;;;;;4.95;1.55;;;;;;;-148.22;100.00;64452.44;5006501;28;20045;-59
2022/08/09 10:56:22;;;;;;;4.80;1.60;;;;;;;-148.22;100.00;64452.44;5001250;28;20444;-60
2022/08/09 10:58:54;;;;;;;3.65;1.80;;;;;;;-148.22;100.00;64452.44;5006579;28;20041;-60
2022/08/09 11:01:38;;;;;;;3.85;1.20;;;;;;;-148.22;100.00;64452.44;4997752;28;20060;-60
2022/08/09 11:04:26;;;;;;;3.30;1.48;;;;;;;-148.22;100.00;64452.44;4990151;28;20105;-60
2022/08/09 11:06:57;;;;;;;2.20;1.30;;;;;;;-148.22;100.00;64452.44;4998126;28;20060;-60
2022/08/09 11:09:37;;;;;;;2.30;1.30;;;;;;;-148.22;100.00;64452.44;5005261;28;20042;-59
2022/08/09 11:12:12;;;;;;;3.05;1.30;;;;;;;-148.22;100.00;64452.44;5004586;28;20125;-59
2022/08/09 11:14:55;;;;;;;3.50;1.50;;;;;;;-148.22;100.00;64452.44;5005127;28;20054;-60
2022/08/09 11:17:25;;;;;;;8.00;1.80;;;;;;;-148.22;100.00;64452.44;5001240;28;20054;-60
2022/08/09 11:19:57;;;;;;;3.50;1.33;;;;;;;-148.22;100.00;64452.44;4995269;28;21057;-62
2022/08/09 11:22:43;;;;;;;2.85;1.20;;;;;;;-148.22;100.00;64452.44;4997376;28;20057;-64
2022/08/09 11:25:36;;;;;;;4.10;1.40;;;;;;;-148.22;100.00;64452.44;4995894;28;20563;-62
2022/08/09 11:28:33;;;;;;;3.22;1.55;;;;;;;-148.22;100.00;64452.44;4990592;28;20113;-63
2022/08/09 11:31:44;;;;;;;3.60;1.60;;;;;;;-148.22;100.00;64452.44;4999442;28;20082;-62
2022/08/09 11:34:42;;;;;;;5.82;1.45;;;;;;;-148.22;100.00;64452.44;4999274;28;20589;-63
2022/08/09 11:37:10;;;;;;;4.05;1.63;;;;;;;-148.22;100.00;64452.44;4988765;28;20053;-63
2022/08/09 11:40:06;;;;;;;3.10;1.33;;;;;;;-148.22;100.00;64452.44;4997785;28;20337;-64
2022/08/09 11:42:45;;;;;;;3.20;1.42;;;;;;;-148.22;100.00;64452.44;4991719;28;20038;-61
2022/08/09 11:45:27;;;;;;;4.83;1.43;;;;;;;-148.22;100.00;64452.44;5000680;28;20433;-63
2022/08/09 11:48:11;;;;;;;3.45;1.33;;;;;;;-148.22;100.00;64452.44;4985380;28;20140;-62
2022/08/09 11:50:56;;;;;;;4.03;1.48;;;;;;;-148.22;100.00;64452.44;4991934;28;20165;-58
2022/08/09 11:53:44;;;;;;;2.65;1.30;;;;;;;-148.22;100.00;64452.44;5001755;28;20050;-63
2022/08/09 11:56:29;;;;;;;1.92;1.10;;;;;;;-148.22;100.00;64452.44;4984980;28;20421;-63